Time;durP1;ratioP1;P1;durP2;ratioP2;P2;SDS_P1;SDS_P2;PMS_P1;PMS_P2;Temp;Humidity;BMP_temperature;BMP_pressure;BME280_temperature;BME280_humidity;BME280_pressure;Samples;Min_cycle;Max_cycle;Signal;HPM_P1;HPM_P2
2021/07/30 00:00:28;;;;;;;;;;;;;;;23.41;34.54;100687.19;5012496;28;96901;-79
2021/07/30 00:02:55;;;;;;;;;;;;;;;23.37;35.15;100683.03;5011866;28;99125;-80
2021/07/30 00:05:22;;;;;;;;;;;;;;;23.35;35.24;100682.34;5012380;28;98816;-79
2021/07/30 00:07:49;;;;;;;;;;;;;;;23.13;35.41;100677.16;5010624;28;96767;-81
2021/07/30 00:10:15;;;;;;;;;;;;;;;23.15;35.96;100686.81;5013472;28;98640;-79
2021/07/30 00:12:41;;;;;;;;;;;;;;;23.06;36.47;100674.16;5011973;28;102018;-79
2021/07/30 00:15:08;;;;;;;;;;;;;;;23.00;36.84;100678.25;4999122;27;99897;-79
2021/07/30 00:17:35;;;;;;;;;;;;;;;23.14;36.48;100685.13;4997865;28;96834;-80
2021/07/30 00:20:02;;;;;;;;;;;;;;;23.24;34.99;100685.13;5012582;28;97125;-81
2021/07/30 00:22:29;;;;;;;;;;;;;;;23.17;34.94;100678.59;5011269;28;99093;-79
2021/07/30 00:24:56;;;;;;;;;;;;;;;23.19;35.20;100671.22;5010204;28;98829;-80
2021/07/30 00:27:22;;;;;;;;;;;;;;;23.10;35.16;100672.06;5011970;28;96908;-79
2021/07/30 00:29:48;;;;;;;;;;;;;;;23.08;34.43;100668.63;5013060;28;97778;-80
2021/07/30 00:32:15;;;;;;;;;;;;;;;23.16;34.80;100669.66;5010754;28;97862;-80
2021/07/30 00:34:41;;;;;;;;;;;;;;;23.11;34.31;100673.72;5003162;28;99231;-81
2021/07/30 00:37:07;;;;;;;;;;;;;;;23.15;34.37;100662.56;5010334;28;97048;-79
2021/07/30 00:39:35;;;;;;;;;;;;;;;23.04;34.67;100663.50;5013239;28;96872;-81
2021/07/30 00:42:02;;;;;;;;;;;;;;;23.07;34.79;100665.09;5010725;28;102042;-80
2021/07/30 00:44:28;;;;;;;;;;;;;;;22.98;34.72;100655.09;5011180;28;100283;-81
2021/07/30 00:46:55;;;;;;;;;;;;;;;22.96;34.75;100649.03;5013822;28;96829;-82
2021/07/30 00:49:21;;;;;;;;;;;;;;;22.81;34.93;100644.97;5012238;28;97131;-81
2021/07/30 00:51:48;;;;;;;;;;;;;;;23.02;34.97;100651.16;5013660;28;101697;-80
2021/07/30 00:54:14;;;;;;;;;;;;;;;22.75;36.15;100656.28;5010676;28;101556;-81
2021/07/30 00:56:42;;;;;;;;;;;;;;;22.77;35.60;100659.72;4996467;28;96819;-81
2021/07/30 00:59:08;;;;;;;;;;;;;;;22.78;35.52;100650.63;5009778;28;97259;-81
2021/07/30 01:01:35;;;;;;;;;;;;;;;22.74;35.39;100659.97;5010619;28;101093;-81
2021/07/30 01:04:02;;;;;;;;;;;;;;;22.74;35.66;100655.44;5010764;28;98064;-80
2021/07/30 01:06:28;;;;;;;;;;;;;;;22.55;36.37;100658.00;5006205;28;97680;-80
2021/07/30 01:08:55;;;;;;;;;;;;;;;22.57;36.04;100664.97;5013402;28;96763;-80
2021/07/30 01:11:21;;;;;;;;;;;;;;;22.56;36.17;100655.19;5013983;28;101394;-80
2021/07/30 01:13:49;;;;;;;;;;;;;;;22.47;36.07;100652.41;5012635;28;96957;-81
2021/07/30 01:16:15;;;;;;;;;;;;;;;22.54;35.66;100651.75;5014802;28;97257;-81
2021/07/30 01:18:41;;;;;;;;;;;;;;;22.58;35.41;100653.19;5019382;28;96889;-79
2021/07/30 01:21:09;;;;;;;;;;;;;;;22.50;35.49;100652.16;5017866;28;97851;-81
2021/07/30 01:23:37;;;;;;;;;;;;;;;22.49;35.59;100651.31;5011662;28;101478;-80
2021/07/30 01:26:03;;;;;;;;;;;;;;;22.59;35.65;100651.34;5012200;28;97079;-80
2021/07/30 01:28:30;;;;;;;;;;;;;;;22.65;34.99;100648.13;5012155;28;96878;-80
2021/07/30 01:30:56;;;;;;;;;;;;;;;22.54;35.46;100649.06;5009972;28;99346;-79
2021/07/30 01:33:22;;;;;;;;;;;;;;;22.47;35.50;100641.66;5012140;28;99116;-80
2021/07/30 01:35:49;;;;;;;;;;;;;;;22.51;35.42;100648.50;5014140;28;96952;-81
2021/07/30 01:38:16;;;;;;;;;;;;;;;22.45;35.40;100639.06;5008815;28;98977;-80
2021/07/30 01:40:43;;;;;;;;;;;;;;;22.52;35.35;100639.41;5010006;28;100012;-81
2021/07/30 01:43:10;;;;;;;;;;;;;;;22.53;35.50;100635.72;5012484;28;98031;-80
2021/07/30 01:45:36;;;;;;;;;;;;;;;22.49;35.75;100645.06;5013589;28;97128;-81
2021/07/30 01:48:02;;;;;;;;;;;;;;;22.41;35.65;100637.66;5010194;28;97157;-80
2021/07/30 01:50:29;;;;;;;;;;;;;;;22.47;35.96;100641.66;5016422;28;98927;-79
2021/07/30 01:52:55;;;;;;;;;;;;;;;22.56;35.42;100640.88;5018836;28;96745;-78
2021/07/30 01:55:23;;;;;;;;;;;;;;;22.45;35.31;100639.06;5015553;28;96913;-80
2021/07/30 01:57:51;;;;;;;;;;;;;;;22.33;35.73;100640.16;5011511;28;97765;-79
2021/07/30 02:00:17;;;;;;;;;;;;;;;22.39;35.69;100638.75;5018034;28;99434;-79
2021/07/30 02:02:44;;;;;;;;;;;;;;;22.46;35.45;100643.47;5010954;28;98028;-80
2021/07/30 02:05:10;;;;;;;;;;;;;;;22.60;35.28;100639.59;5011914;28;97342;-79
2021/07/30 02:07:37;;;;;;;;;;;;;;;22.40;35.56;100645.84;5010524;27;97312;-79
2021/07/30 02:10:04;;;;;;;;;;;;;;;22.51;35.40;100648.50;5012719;28;98234;-80
2021/07/30 02:12:30;;;;;;;;;;;;;;;22.50;35.74;100658.41;5011753;28;99676;-79
2021/07/30 02:14:57;;;;;;;;;;;;;;;22.43;35.83;100648.28;4992550;28;97170;-79
2021/07/30 02:17:23;;;;;;;;;;;;;;;22.44;36.04;100652.69;5007990;28;96855;-80
2021/07/30 02:19:49;;;;;;;;;;;;;;;22.45;36.01;100657.09;5012718;28;98115;-80
2021/07/30 02:22:15;;;;;;;;;;;;;;;22.43;36.16;100648.28;5012052;28;100910;-79
2021/07/30 02:24:42;;;;;;;;;;;;;;;22.34;36.09;100644.53;5011620;28;96880;-79
2021/07/30 02:27:08;;;;;;;;;;;;;;;22.20;36.57;100645.72;5010294;28;96981;-79
2021/07/30 02:29:34;;;;;;;;;;;;;;;22.36;36.21;100650.66;5016049;28;101670;-79
2021/07/30 02:32:02;;;;;;;;;;;;;;;22.31;36.08;100654.75;5014930;28;97979;-79
2021/07/30 02:34:28;;;;;;;;;;;;;;;22.29;36.26;100652.19;5020769;28;97131;-78
2021/07/30 02:36:54;;;;;;;;;;;;;;;22.24;36.84;100662.50;5023483;28;97029;-80
2021/07/30 02:39:20;;;;;;;;;;;;;;;22.20;36.84;100666.41;5024205;28;98154;-80
2021/07/30 02:41:47;;;;;;;;;;;;;;;22.14;36.95;100662.41;5021562;28;98806;-79
2021/07/30 02:44:13;;;;;;;;;;;;;;;22.11;36.78;100662.69;5016844;28;96946;-79
2021/07/30 02:46:39;;;;;;;;;;;;;;;22.17;36.65;100670.22;5017614;28;96887;-79
2021/07/30 02:49:07;;;;;;;;;;;;;;;22.07;36.86;100665.72;5014115;28;98176;-81
2021/07/30 02:51:33;;;;;;;;;;;;;;;21.96;37.16;100668.50;5015623;28;98018;-79
2021/07/30 02:53:59;;;;;;;;;;;;;;;22.08;36.82;100670.13;5008320;28;97032;-80
2021/07/30 02:56:25;;;;;;;;;;;;;;;22.04;36.88;100671.41;4996352;28;96928;-79
2021/07/30 02:58:52;;;;;;;;;;;;;;;21.93;37.14;100674.94;5013567;28;99160;-80
2021/07/30 03:01:18;;;;;;;;;;;;;;;21.97;37.05;100667.50;5016930;28;98316;-80
2021/07/30 03:03:44;;;;;;;;;;;;;;;21.93;37.04;100663.31;5014814;28;98735;-79
2021/07/30 03:06:12;;;;;;;;;;;;;;;21.96;37.01;100669.34;5017087;28;96844;-80
2021/07/30 03:08:38;;;;;;;;;;;;;;;21.90;37.38;100664.44;5011944;28;99797;-80
2021/07/30 03:11:04;;;;;;;;;;;;;;;21.80;37.46;100667.03;5012631;28;99067;-81
2021/07/30 03:13:31;;;;;;;;;;;;;;;21.90;37.40;100664.44;5013777;28;98657;-81
2021/07/30 03:15:57;;;;;;;;;;;;;;;21.98;37.32;100662.00;5015208;28;97051;-81
2021/07/30 03:18:26;;;;;;;;;;;;;;;21.96;37.41;100655.03;5012786;28;99321;-81
2021/07/30 03:20:52;;;;;;;;;;;;;;;21.91;37.64;100665.31;5015492;28;98910;-81
2021/07/30 03:23:20;;;;;;;;;;;;;;;21.96;37.42;100663.09;5015297;28;97710;-80
2021/07/30 03:25:46;;;;;;;;;;;;;;;21.92;37.53;100661.63;5017053;28;97289;-81
2021/07/30 03:28:13;;;;;;;;;;;;;;;22.08;37.59;100662.91;5013283;28;98903;-80
2021/07/30 03:30:39;;;;;;;;;;;;;;;22.02;37.57;100667.97;5013703;28;101444;-81
2021/07/30 03:33:05;;;;;;;;;;;;;;;22.04;37.55;100655.25;5014332;28;97086;-80
2021/07/30 03:35:32;;;;;;;;;;;;;;;22.06;37.50;100664.03;5016531;28;97812;-80
2021/07/30 03:37:58;;;;;;;;;;;;;;;21.95;37.62;100670.28;5013937;28;99302;-81
2021/07/30 03:40:26;;;;;;;;;;;;;;;21.95;37.68;100666.75;5011763;28;99160;-80
2021/07/30 03:42:52;;;;;;;;;;;;;;;22.02;37.59;100662.59;5009973;28;96759;-80
2021/07/30 03:45:19;;;;;;;;;;;;;;;22.17;37.59;100662.16;5014352;28;97330;-79
2021/07/30 03:47:45;;;;;;;;;;;;;;;22.12;37.52;100658.16;5000476;28;99279;-79
2021/07/30 03:50:11;;;;;;;;;;;;;;;22.22;37.44;100669.81;5012876;27;98080;-81
2021/07/30 03:52:37;;;;;;;;;;;;;;;22.22;37.31;100667.13;5015649;28;96697;-80
2021/07/30 03:55:04;;;;;;;;;;;;;;;22.10;37.73;100665.50;5012498;28;98617;-80
2021/07/30 03:57:32;;;;;;;;;;;;;;;22.07;37.90;100666.59;5013938;28;100862;-80
2021/07/30 03:59:59;;;;;;;;;;;;;;;22.10;38.16;100662.81;5013792;28;101555;-80
2021/07/30 04:02:25;;;;;;;;;;;;;;;22.00;38.35;100654.63;5014192;28;96925;-79
2021/07/30 04:04:51;;;;;;;;;;;;;;;22.06;37.81;100662.19;5014726;28;97169;-80
2021/07/30 04:07:18;;;;;;;;;;;;;;;21.89;38.26;100660.03;5010294;28;98288;-82
2021/07/30 04:09:44;;;;;;;;;;;;;;;22.03;38.23;100659.78;5013687;28;99437;-81
2021/07/30 04:12:10;;;;;;;;;;;;;;;22.08;38.19;100662.91;5011807;28;96910;-80
2021/07/30 04:14:38;;;;;;;;;;;;;;;21.95;38.43;100664.06;5016434;28;96968;-81
2021/07/30 04:17:04;;;;;;;;;;;;;;;21.98;38.39;100662.00;5015308;28;97985;-82
2021/07/30 04:19:31;;;;;;;;;;;;;;;22.05;38.35;100667.72;5012072;28;101387;-81
2021/07/30 04:21:57;;;;;;;;;;;;;;;21.97;38.21;100662.13;5013216;28;97022;-80
2021/07/30 04:24:23;;;;;;;;;;;;;;;21.99;38.66;100660.19;5013785;28;97021;-81
2021/07/30 04:26:50;;;;;;;;;;;;;;;22.10;38.50;100660.13;4999640;28;100634;-81
2021/07/30 04:29:16;;;;;;;;;;;;;;;22.20;38.39;100659.19;5004521;28;98789;-81
2021/07/30 04:31:44;;;;;;;;;;;;;;;22.14;38.46;100650.78;5011507;28;97367;-79
2021/07/30 04:34:10;;;;;;;;;;;;;;;22.34;38.30;100660.69;5012497;28;97610;-81
2021/07/30 04:36:36;;;;;;;;;;;;;;;22.34;38.09;100652.63;5013788;28;101661;-80
2021/07/30 04:39:03;;;;;;;;;;;;;;;22.36;38.16;100660.56;5009825;28;97668;-81
2021/07/30 04:41:29;;;;;;;;;;;;;;;22.34;38.41;100663.38;5003508;28;97236;-80
2021/07/30 04:43:55;;;;;;;;;;;;;;;22.44;38.00;100658.94;5011200;28;98868;-80
2021/07/30 04:46:22;;;;;;;;;;;;;;;22.33;38.13;100663.50;5013220;28;100057;-80
2021/07/30 04:48:49;;;;;;;;;;;;;;;22.61;37.93;100670.94;5010145;28;99737;-79
2021/07/30 04:51:18;;;;;;;;;;;;;;;22.76;37.49;100671.47;5013420;28;96737;-80
2021/07/30 04:53:45;;;;;;;;;;;;;;;22.71;37.27;100677.22;5007628;28;97104;-80
2021/07/30 04:56:17;;;;;;;;;;;;;;;22.83;37.22;100675.34;5018688;28;99756;-81
2021/07/30 04:58:43;;;;;;;;;;;;;;;22.87;37.13;100676.75;5013293;28;97791;-80
2021/07/30 05:01:10;;;;;;;;;;;;;;;22.86;37.36;100673.22;5002338;28;96927;-80
2021/07/30 05:03:36;;;;;;;;;;;;;;;22.91;37.17;100675.50;5012147;28;97493;-79
2021/07/30 05:06:12;;;;;;;;;;;;;;;23.12;37.09;100672.75;5011842;28;101314;-80
2021/07/30 05:08:38;;;;;;;;;;;;;;;23.18;36.90;100675.75;5009341;28;99130;-81
2021/07/30 05:11:04;;;;;;;;;;;;;;;23.36;36.85;100668.72;5013687;28;96889;-79
2021/07/30 05:13:31;;;;;;;;;;;;;;;23.36;36.58;100668.72;5010577;28;98539;-81
2021/07/30 05:15:59;;;;;;;;;;;;;;;23.33;36.67;100666.31;5014234;28;101821;-82
2021/07/30 05:18:26;;;;;;;;;;;;;;;23.52;36.44;100667.34;5009335;28;98123;-80
2021/07/30 05:20:52;;;;;;;;;;;;;;;23.59;36.31;100663.97;5012806;28;97203;-81
2021/07/30 05:23:20;;;;;;;;;;;;;;;23.75;35.95;100664.28;5010940;27;96977;-81
2021/07/30 05:25:52;;;;;;;;;;;;;;;23.76;35.68;100665.97;5011256;28;101188;-83
2021/07/30 05:28:19;;;;;;;;;;;;;;;23.67;35.89;100661.44;5012487;28;99084;-82
2021/07/30 05:30:45;;;;;;;;;;;;;;;23.54;36.24;100663.53;5010979;28;97235;-81
2021/07/30 05:33:11;;;;;;;;;;;;;;;23.79;35.94;100670.25;5019123;28;98724;-84
2021/07/30 05:35:38;;;;;;;;;;;;;;;23.95;36.07;100667.84;5021662;28;99109;-82
2021/07/30 05:38:04;;;;;;;;;;;;;;;23.99;35.88;100669.25;5019997;28;97361;-83
2021/07/30 05:40:32;;;;;;;;;;;;;;;24.08;35.68;100664.84;5018156;28;98411;-82
2021/07/30 05:42:59;;;;;;;;;;;;;;;24.17;35.54;100674.78;5028555;28;97412;-83
2021/07/30 05:45:25;;;;;;;;;;;;;;;24.30;34.97;100667.25;5020860;28;102047;-85
2021/07/30 05:47:51;;;;;;;;;;;;;;;24.48;34.89;100667.41;5016552;28;99824;-82
2021/07/30 05:50:18;;;;;;;;;;;;;;;24.54;34.94;100673.06;5019640;28;96677;-87
2021/07/30 05:52:45;;;;;;;;;;;;;;;24.07;35.95;100673.94;5024186;28;98065;-83
2021/07/30 05:55:11;;;;;;;;;;;;;;;24.03;35.61;100672.50;5020052;28;99852;-81
2021/07/30 05:57:39;;;;;;;;;;;;;;;24.23;35.64;100674.22;5011940;28;99144;-79
2021/07/30 06:00:07;;;;;;;;;;;;;;;24.37;35.25;100670.25;5009740;28;97992;-79
2021/07/30 06:02:33;;;;;;;;;;;;;;;24.56;34.98;100662.94;5013757;28;96972;-81
2021/07/30 06:04:59;;;;;;;;;;;;;;;24.75;34.64;100663.88;5016740;28;99236;-80
2021/07/30 06:07:26;;;;;;;;;;;;;;;24.88;34.54;100659.00;5015655;28;99946;-79
2021/07/30 06:09:52;;;;;;;;;;;;;;;24.68;35.02;100654.69;5033616;28;96807;-85
2021/07/30 06:12:19;;;;;;;;;;;;;;;24.91;34.68;100653.34;5021671;28;96788;-81
2021/07/30 06:14:47;;;;;;;;;;;;;;;25.02;34.38;100661.25;5015991;28;99237;-83
2021/07/30 06:17:14;;;;;;;;;;;;;;;25.07;34.17;100661.69;5012273;27;100034;-80
2021/07/30 06:19:40;;;;;;;;;;;;;;;25.30;33.99;100645.91;5014619;28;96810;-80
2021/07/30 06:22:07;;;;;;;;;;;;;;;25.47;33.75;100653.19;5006556;28;96923;-79
2021/07/30 06:24:36;;;;;;;;;;;;;;;26.15;32.30;100656.25;5011842;28;98998;-83
2021/07/30 06:27:02;;;;;;;;;;;;;;;26.10;32.32;100655.88;5014105;28;99744;-80
2021/07/30 06:29:29;;;;;;;;;;;;;;;25.90;32.98;100657.03;5005449;28;100490;-81
2021/07/30 06:31:57;;;;;;;;;;;;;;;25.84;33.10;100652.25;5008509;28;98925;-79
2021/07/30 06:34:23;;;;;;;;;;;;;;;25.68;33.45;100651.06;5015418;28;97768;-80
2021/07/30 06:36:54;;;;;;;;;;;;;;;25.93;33.57;100649.44;5013398;28;98678;-81
2021/07/30 06:39:22;;;;;;;;;;;;;;;25.99;33.58;100656.13;5014614;28;97347;-81
2021/07/30 06:41:48;;;;;;;;;;;;;;;25.76;33.42;100653.00;5014433;28;96996;-80
2021/07/30 06:44:14;;;;;;;;;;;;;;;25.79;33.34;100650.88;5021258;28;101523;-79
2021/07/30 06:46:41;;;;;;;;;;;;;;;26.19;32.92;100661.19;5024547;28;99101;-80
2021/07/30 06:49:08;;;;;;;;;;;;;;;26.22;32.94;100656.47;5017244;28;97381;-80
2021/07/30 06:51:35;;;;;;;;;;;;;;;26.42;32.62;100660.72;5019923;28;97300;-78
2021/07/30 06:54:01;;;;;;;;;;;;;;;26.01;32.79;100654.94;5023409;28;97114;-80
2021/07/30 06:56:28;;;;;;;;;;;;;;;26.30;32.40;100654.72;5019277;28;100686;-80
2021/07/30 06:58:55;;;;;;;;;;;;;;;26.19;32.58;100655.75;5021855;28;98402;-80
2021/07/30 07:01:21;;;;;;;;;;;;;;;25.32;33.80;100652.88;5025893;28;97162;-81
2021/07/30 07:03:47;;;;;;;;;;;;;;;25.47;33.27;100645.06;5019759;28;100843;-81
2021/07/30 07:06:19;;;;;;;;;;;;;;;25.90;32.86;100652.47;5020538;28;99759;-80
2021/07/30 07:08:46;;;;;;;;;;;;;;;25.57;33.67;100647.72;5021234;28;96859;-79
2021/07/30 07:11:13;;;;;;;;;;;;;;;25.92;32.48;100628.81;5021403;28;96874;-80
2021/07/30 07:13:41;;;;;;;;;;;;;;;26.48;31.72;100651.97;5010383;28;101205;-81
2021/07/30 07:16:07;;;;;;;;;;;;;;;26.97;31.07;100634.16;5014897;28;101201;-81
2021/07/30 07:18:34;;;;;;;;;;;;;;;26.35;32.08;100638.84;5014944;28;96988;-78
2021/07/30 07:21:00;;;;;;;;;;;;;;;27.13;30.78;100645.06;5012506;28;97294;-82
2021/07/30 07:23:28;;;;;;;;;;;;;;;27.20;30.79;100637.97;5016965;28;99493;-79
2021/07/30 07:25:54;;;;;;;;;;;;;;;27.29;30.40;100634.28;5017681;28;98931;-81
2021/07/30 07:28:42;;;;;;;;;;;;;;;27.21;30.25;100641.53;5017843;28;98567;-81
2021/07/30 07:31:08;;;;;;;;;;;;;;;27.12;30.24;100635.22;5007672;27;96957;-81
2021/07/30 07:33:58;;;;;;;;;;;;;;;27.45;30.42;100647.03;5005203;28;97461;-82
2021/07/30 07:36:24;;;;;;;;;;;;;;;26.84;31.57;100637.28;5002251;28;97671;-81
2021/07/30 07:47:48;;;;;;;;;;;;;;;27.48;30.41;100638.56;5001337;28;98718;-81
2021/07/30 07:50:14;;;;;;;;;;;;;;;27.38;30.48;100637.84;5008145;28;97279;-82
2021/07/30 07:52:41;;;;;;;;;;;;;;;27.66;29.39;100633.03;5008242;28;97314;-79
2021/07/30 07:55:08;;;;;;;;;;;;;;;27.11;30.54;100636.22;5011413;28;103076;-81
2021/07/30 07:57:35;;;;;;;;;;;;;;;27.69;29.04;100639.00;5005288;28;100299;-81
2021/07/30 08:00:01;;;;;;;;;;;;;;;27.65;29.13;100631.31;5001991;28;97371;-79
2021/07/30 08:02:27;;;;;;;;;;;;;;;27.82;29.10;100633.06;5000634;28;98535;-80
2021/07/30 08:05:06;;;;;;;;;;;;;;;27.93;29.13;100630.00;5005464;28;99360;-80
2021/07/30 08:07:33;;;;;;;;;;;;;;;28.03;29.15;100630.69;5006626;28;101836;-81
2021/07/30 08:09:59;;;;;;;;;;;;;;;28.14;29.29;100630.38;5005375;28;98956;-81
2021/07/30 08:12:25;;;;;;;;;;;;;;;27.52;29.81;100617.41;5008842;28;97403;-80
2021/07/30 08:14:52;;;;;;;;;;;;;;;27.74;29.00;100622.19;5000963;28;97140;-82
2021/07/30 08:17:18;;;;;;;;;;;;;;;28.01;29.02;100630.03;5003485;28;99723;-81
2021/07/30 08:19:47;;;;;;;;;;;;;;;27.90;28.68;100626.75;5006615;28;98488;-81
2021/07/30 08:22:16;;;;;;;;;;;;;;;28.02;28.68;100617.28;5016995;28;97356;-84
2021/07/30 08:24:43;;;;;;;;;;;;;;;28.29;28.73;100621.56;5014609;28;101532;-83
2021/07/30 08:27:10;;;;;;;;;;;;;;;28.10;29.02;100631.69;5023269;28;100668;-81
2021/07/30 08:29:48;;;;;;;;;;;;;;;27.35;29.58;100622.78;5026290;28;97310;-82
2021/07/30 08:32:20;;;;;;;;;;;;;;;27.02;29.66;100612.81;5017679;28;97025;-81
2021/07/30 08:37:57;;;;;;;;;;;;;;;28.09;29.12;100613.69;4996663;28;97367;-82
2021/07/30 08:40:23;;;;;;;;;;;;;;;28.19;29.04;100627.16;5023974;28;96863;-83
2021/07/30 08:42:50;;;;;;;;;;;;;;;28.04;28.81;100615.22;5021024;28;97507;-83
2021/07/30 08:45:37;;;;;;;;;;;;;;;27.87;28.50;100613.53;5017619;28;97861;-83
2021/07/30 08:48:03;;;;;;;;;;;;;;;27.01;29.05;100624.66;5015900;28;98845;-83
2021/07/30 08:50:31;;;;;;;;;;;;;;;27.89;27.37;100625.09;5009795;28;97214;-84
2021/07/30 08:53:03;;;;;;;;;;;;;;;28.22;27.37;100612.38;5015444;28;97880;-82
2021/07/30 08:55:39;;;;;;;;;;;;;;;28.06;27.45;100605.91;5010966;28;99083;-83
2021/07/30 08:58:16;;;;;;;;;;;;;;;28.38;27.38;100604.19;5014387;28;98155;-81
2021/07/30 09:00:51;;;;;;;;;;;;;;;27.98;27.10;100622.19;5016144;28;97351;-80
2021/07/30 09:03:39;;;;;;;;;;;;;;;27.76;27.45;100622.88;5010610;28;96947;-82
2021/07/30 09:06:13;;;;;;;;;;;;;;;27.76;27.49;100606.59;5018393;28;101399;-82
2021/07/30 09:08:40;;;;;;;;;;;;;;;27.21;28.13;100611.69;5015298;28;99297;-83
2021/07/30 09:11:09;;;;;;;;;;;;;;;27.84;27.27;100614.72;5016726;28;96894;-83
2021/07/30 09:13:35;;;;;;;;;;;;;;;28.15;26.92;100606.78;5017498;28;97689;-83
2021/07/30 09:16:11;;;;;;;;;;;;;;;27.10;28.30;100602.00;5015801;28;98789;-83
2021/07/30 09:18:38;;;;;;;;;;;;;;;28.01;27.27;100602.84;5009617;28;99885;-84
2021/07/30 09:21:32;;;;;;;;;;;;;;;28.07;26.97;100614.91;5009793;28;96815;-84
2021/07/30 09:24:02;;;;;;;;;;;;;;;27.29;27.41;100604.44;4992375;28;97087;-83
2021/07/30 09:26:40;;;;;;;;;;;;;;;26.95;27.92;100603.63;4992623;28;102015;-84
2021/07/30 09:29:38;;;;;;;;;;;;;;;27.20;27.85;100604.56;5011217;28;98534;-83
2021/07/30 09:32:05;;;;;;;;;;;;;;;27.18;28.12;100599.31;5009628;28;96953;-83
2021/07/30 09:34:33;;;;;;;;;;;;;;;27.74;27.49;100597.75;5014080;28;97064;-85
2021/07/30 09:40:21;;;;;;;;;;;;;;;28.97;26.02;100591.13;5019429;28;98938;-83
2021/07/30 09:42:48;;;;;;;;;;;;;;;29.11;26.01;100588.50;5014885;28;96765;-82
2021/07/30 09:54:12;;;;;;;;;;;;;;;28.41;26.54;100591.13;5028125;28;96534;-88
2021/07/30 09:59:35;;;;;;;;;;;;;;;28.24;27.38;100588.59;5031640;27;97706;-89
2021/07/30 10:05:07;;;;;;;;;;;;;;;27.20;28.03;100575.59;5019352;27;96284;-87
2021/07/30 10:07:36;;;;;;;;;;;;;;;26.96;28.68;100576.38;5020840;27;96581;-87
2021/07/30 10:10:14;;;;;;;;;;;;;;;27.53;28.15;100573.81;5037236;27;100259;-88
2021/07/30 10:15:43;;;;;;;;;;;;;;;28.68;26.63;100570.84;5025649;28;96635;-90
2021/07/30 10:18:20;;;;;;;;;;;;;;;28.33;26.68;100560.41;5022764;28;96962;-87
2021/07/30 10:23:43;;;;;;;;;;;;;;;28.55;26.19;100544.19;5017946;28;99168;-90
2021/07/30 10:29:14;;;;;;;;;;;;;;;28.33;26.53;100563.13;5030707;28;96733;-87
2021/07/30 10:32:06;;;;;;;;;;;;;;;27.24;29.16;100557.94;5030421;28;99637;-88
2021/07/30 10:34:48;;;;;;;;;;;;;;;27.26;28.35;100547.78;5047726;27;97737;-89
2021/07/30 10:37:35;;;;;;;;;;;;;;;27.08;27.93;100552.50;5043328;27;96732;-84
2021/07/30 10:40:17;;;;;;;;;;;;;;;26.62;29.02;100544.84;5031218;28;96725;-82
2021/07/30 10:43:17;;;;;;;;;;;;;;;27.79;27.54;100540.22;5018180;28;97741;-86
2021/07/30 10:49:00;;;;;;;;;;;;;;;27.14;27.67;100537.44;5003609;28;97066;-85
2021/07/30 10:51:28;;;;;;;;;;;;;;;27.82;26.81;100534.47;5015298;28;97318;-83
2021/07/30 10:53:56;;;;;;;;;;;;;;;27.79;26.83;100535.66;5011758;28;100213;-84
2021/07/30 10:56:47;;;;;;;;;;;;;;;28.22;26.51;100522.75;5014219;28;101079;-85
2021/07/30 10:59:14;;;;;;;;;;;;;;;27.63;26.55;100531.09;5018624;28;97052;-83
2021/07/30 11:01:59;;;;;;;;;;;;;;;27.09;27.80;100516.22;5019504;28;97182;-87
2021/07/30 11:04:27;;;;;;;;;;;;;;;27.90;26.98;100523.59;5027805;28;99591;-83
2021/07/30 11:10:12;;;;;;;;;;;;;;;28.21;26.41;100507.44;5024710;28;97056;-84
2021/07/30 11:12:39;;;;;;;;;;;;;;;28.84;25.91;100501.97;5017806;28;96973;-83
2021/07/30 11:18:03;;;;;;;;;;;;;;;28.98;25.81;100519.38;5008601;27;97348;-85
2021/07/30 11:20:36;;;;;;;;;;;;;;;27.97;27.13;100505.59;5013674;28;97959;-84
2021/07/30 11:23:03;;;;;;;;;;;;;;;27.84;27.15;100508.81;5018362;28;96830;-83
2021/07/30 11:25:31;;;;;;;;;;;;;;;28.47;26.36;100503.47;5015123;28;99966;-83
2021/07/30 11:27:58;;;;;;;;;;;;;;;28.49;26.32;100495.97;5014761;28;98313;-85
2021/07/30 11:30:27;;;;;;;;;;;;;;;27.55;27.92;100497.66;5016587;28;96874;-85
2021/07/30 11:32:54;;;;;;;;;;;;;;;27.96;27.60;100499.31;5020951;28;97756;-86
2021/07/30 11:35:22;;;;;;;;;;;;;;;27.83;27.52;100498.16;5025829;28;101180;-87
2021/07/30 11:37:58;;;;;;;;;;;;;;;28.33;26.77;100490.59;5035044;28;100252;-86
2021/07/30 11:40:39;;;;;;;;;;;;;;;28.22;27.08;100482.00;5033248;27;96753;-86
2021/07/30 11:43:08;;;;;;;;;;;;;;;28.62;27.32;100486.44;5033752;27;97131;-84
2021/07/30 11:45:37;;;;;;;;;;;;;;;27.79;27.53;100489.50;5035388;27;98327;-86
2021/07/30 11:48:10;;;;;;;;;;;;;;;28.84;26.58;100485.66;5032597;28;99001;-85
2021/07/30 11:50:38;;;;;;;;;;;;;;;28.19;27.17;100485.03;5019765;28;98220;-85
2021/07/30 11:53:06;;;;;;;;;;;;;;;28.48;26.75;100477.13;5018716;28;96915;-84
2021/07/30 11:55:32;;;;;;;;;;;;;;;28.57;26.31;100475.22;5019684;28;99801;-82
2021/07/30 11:58:08;;;;;;;;;;;;;;;28.80;26.45;100471.56;5010725;28;100946;-83
2021/07/30 12:00:46;;;;;;;;;;;;;;;28.85;26.50;100469.16;5009849;28;97796;-89
2021/07/30 12:03:19;;;;;;;;;;;;;;;28.35;27.06;100474.13;5017829;27;96841;-83
2021/07/30 12:05:49;;;;;;;;;;;;;;;28.71;27.22;100472.59;5016698;28;101534;-86
2021/07/30 12:10:59;;;;;;;;;;;;;;;29.19;26.73;100462.47;5012183;28;96898;-82
2021/07/30 12:13:26;;;;;;;;;;;;;;;29.68;25.83;100461.06;5009265;28;98258;-81
2021/07/30 12:15:54;;;;;;;;;;;;;;;29.62;25.43;100464.50;5009111;28;99823;-81
2021/07/30 12:18:46;;;;;;;;;;;;;;;30.02;24.94;100459.72;5008407;28;99515;-83
2021/07/30 12:21:13;;;;;;;;;;;;;;;30.39;24.67;100448.72;5008132;28;98711;-81
2021/07/30 12:26:38;;;;;;;;;;;;;;;30.37;25.54;100456.25;5010893;28;98156;-84
2021/07/30 12:29:07;;;;;;;;;;;;;;;30.22;24.94;100446.38;5015532;28;99290;-83
2021/07/30 12:31:35;;;;;;;;;;;;;;;30.33;24.61;100452.19;5011791;28;98707;-83
2021/07/30 12:34:14;;;;;;;;;;;;;;;30.30;25.05;100444.41;5016547;28;97334;-82
2021/07/30 12:36:42;;;;;;;;;;;;;;;30.71;24.57;100441.19;5017207;28;97754;-82
2021/07/30 12:39:09;;;;;;;;;;;;;;;30.69;24.87;100435.91;5031142;28;98782;-83
2021/07/30 12:44:17;;;;;;;;;;;;;;;29.41;26.15;100439.84;5019233;27;98097;-83
2021/07/30 12:46:47;;;;;;;;;;;;;;;30.46;25.44;100438.75;5024545;28;99474;-81
2021/07/30 12:49:14;;;;;;;;;;;;;;;31.05;24.99;100433.19;5034031;28;97834;-82
2021/07/30 12:51:42;;;;;;;;;;;;;;;30.81;24.75;100437.09;5027365;28;98660;-81
2021/07/30 12:54:10;;;;;;;;;;;;;;;31.05;24.85;100440.56;5021749;28;97928;-81
2021/07/30 12:56:56;;;;;;;;;;;;;;;30.95;24.23;100429.91;5015043;28;99703;-82
2021/07/30 12:59:37;;;;;;;;;;;;;;;30.71;24.19;100433.84;5009267;28;98909;-82
2021/07/30 13:02:05;;;;;;;;;;;;;;;30.98;24.39;100426.81;5004853;28;96857;-81
2021/07/30 13:04:32;;;;;;;;;;;;;;;31.10;23.84;100421.69;5009693;28;97354;-83
2021/07/30 13:06:59;;;;;;;;;;;;;;;31.83;23.46;100410.38;5010511;28;98392;-82
2021/07/30 13:09:35;;;;;;;;;;;;;;;31.75;24.17;100407.78;5012021;28;97719;-82
2021/07/30 13:12:19;;;;;;;;;;;;;;;32.17;23.14;100405.94;5008179;28;97231;-81
2021/07/30 13:14:54;;;;;;;;;;;;;;;32.30;23.69;100404.13;5004919;28;96904;-80
2021/07/30 13:20:19;;;;;;;;;;;;;;;32.37;23.00;100402.25;5009007;28;100727;-83
2021/07/30 13:22:45;;;;;;;;;;;;;;;32.56;22.66;100406.09;5008884;28;97560;-82
2021/07/30 13:25:12;;;;;;;;;;;;;;;32.49;22.96;100390.75;5015708;28;96859;-83
2021/07/30 13:27:40;;;;;;;;;;;;;;;31.92;23.02;100392.75;5024970;28;96989;-82
2021/07/30 13:30:08;;;;;;;;;;;;;;;32.82;22.43;100389.00;5023060;28;96744;-83
2021/07/30 13:32:35;;;;;;;;;;;;;;;32.24;22.64;100395.88;5022189;28;96839;-82
2021/07/30 13:35:02;;;;;;;;;;;;;;;32.87;22.32;100396.56;5016595;28;96882;-83
2021/07/30 13:37:28;;;;;;;;;;;;;;;33.33;21.67;100396.66;5022370;28;100690;-82
2021/07/30 13:39:55;;;;;;;;;;;;;;;33.53;21.29;100384.63;5011367;28;98822;-82
2021/07/30 13:42:21;;;;;;;;;;;;;;;33.90;20.93;100385.00;5008336;28;97231;-82